Pakpattan Weather



Pakpattan's Current Weather

Temprature 27.51o clear sky

clear sky

Rain: 0 %

Min Temprature27.51o
Max Temprature27.51o
Humidity49
Wind Speed5.48 m/h
Sun Rise05:08:01
Sun Set18:58:49
Current Time: 24-May-2022 08:27:25
Lat/Lon: 30.341, 73.3866




Pakpattan's Geo Location



Pakpattan's Weather Forecast

Time Overall Temp Min Temp Max Temp Humidity Wind Speed Rain
24-May-2022 (Tue)
11:00:00 clear sky 29.220 29.220 32.640 44 5.43 m/h 0 %
14:00:00 clear sky 33.020 33.020 35.780 33 5.02 m/h 0 %
17:00:00 clear sky 35.800 35.800 35.800 22 3.65 m/h 0 %
20:00:00 clear sky 32.160 32.160 32.160 27 3.56 m/h 0 %
23:00:00 clear sky 29.660 29.660 29.660 32 3.45 m/h 0 %
25-May-2022 (Wed)
02:00:00 clear sky 28.500 28.500 28.500 33 3.08 m/h 0 %
05:00:00 clear sky 27.260 27.260 27.260 36 3.05 m/h 0 %
08:00:00 clear sky 32.930 32.930 32.930 24 3.58 m/h 0 %
11:00:00 clear sky 37.720 37.720 37.720 16 0.93 m/h 0 %
14:00:00 clear sky 40.260 40.260 40.260 13 2.1 m/h 0 %
17:00:00 clear sky 40.700 40.700 40.700 11 2.42 m/h 0 %
20:00:00 clear sky 35.450 35.450 35.450 18 3.44 m/h 0 %
23:00:00 clear sky 33.160 33.160 33.160 22 3.53 m/h 0 %
26-May-2022 (Thu)
02:00:00 clear sky 32.030 32.030 32.030 23 2.81 m/h 0 %
05:00:00 clear sky 30.600 30.600 30.600 24 3.21 m/h 0 %
08:00:00 clear sky 36.360 36.360 36.360 16 3.75 m/h 0 %
11:00:00 clear sky 41.770 41.770 41.770 11 3.47 m/h 0 %
14:00:00 clear sky 44.380 44.380 44.380 9 2.08 m/h 0 %
17:00:00 clear sky 44.610 44.610 44.610 9 0.46 m/h 0 %
20:00:00 clear sky 38.720 38.720 38.720 13 4.18 m/h 0 %
23:00:00 clear sky 35.950 35.950 35.950 17 3.67 m/h 0 %
27-May-2022 (Fri)
02:00:00 clear sky 33.960 33.960 33.960 19 3.41 m/h 0 %
05:00:00 clear sky 32.710 32.710 32.710 26 5 m/h 0 %
08:00:00 clear sky 35.610 35.610 35.610 34 6.94 m/h 0 %
11:00:00 clear sky 41.550 41.550 41.550 21 4.73 m/h 0 %
14:00:00 clear sky 45.190 45.190 45.190 14 3.8 m/h 0 %
17:00:00 clear sky 46.050 46.050 46.050 11 2.02 m/h 0 %
20:00:00 clear sky 40.660 40.660 40.660 14 3.63 m/h 0 %
23:00:00 clear sky 37.890 37.890 37.890 17 4.34 m/h 0 %
28-May-2022 (Sat)
02:00:00 clear sky 36.490 36.490 36.490 24 8.18 m/h 0 %
05:00:00 clear sky 32.600 32.600 32.600 33 7.38 m/h 0 %
08:00:00 clear sky 37.420 37.420 37.420 20 7.68 m/h 0 %
11:00:00 clear sky 43.840 43.840 43.840 9 8.16 m/h 0 %
14:00:00 clear sky 47.310 47.310 47.310 3 7.59 m/h 0 %
17:00:00 clear sky 46.560 46.560 46.560 2 8.6 m/h 0 %
20:00:00 clear sky 39.060 39.060 39.060 2 4.42 m/h 0 %
23:00:00 clear sky 37.880 37.880 37.880 3 6.41 m/h 0 %
29-May-2022 (Sun)
02:00:00 clear sky 33.480 33.480 33.480 8 6.25 m/h 0 %
05:00:00 clear sky 31.110 31.110 31.110 24 3.88 m/h 0 %
08:00:00 clear sky 34.950 34.950 34.950 26 6.43 m/h 0 %

Famous Cities (61)